createdAt,value
2019-05-26T00:01:56.844Z,1.92
2019-05-26T00:04:49.648Z,2.17
2019-05-26T00:07:38.607Z,2.83
2019-05-26T00:10:31.665Z,3.40
2019-05-26T00:13:24.716Z,2.25
2019-05-26T00:16:17.770Z,3.10
2019-05-26T00:19:10.833Z,3.08
2019-05-26T00:22:03.622Z,2.25
2019-05-26T00:24:56.680Z,2.85
2019-05-26T00:27:49.734Z,3.60
2019-05-26T00:30:42.534Z,3.40
2019-05-26T00:33:35.336Z,3.22
2019-05-26T00:36:28.134Z,2.75
2019-05-26T00:39:20.937Z,3.40
2019-05-26T00:42:13.739Z,3.52
2019-05-26T00:45:06.537Z,3.27
2019-05-26T00:48:01.132Z,3.58
2019-05-26T00:50:53.931Z,4.42
2019-05-26T00:53:46.726Z,4.42
2019-05-26T00:56:39.532Z,2.62
2019-05-26T00:59:32.331Z,4.28
2019-05-26T01:02:25.381Z,2.10
2019-05-26T01:05:18.450Z,4.87
2019-05-26T01:08:11.242Z,4.05
2019-05-26T01:11:04.298Z,4.78
2019-05-26T01:13:58.117Z,4.75
2019-05-26T01:16:50.922Z,4.70
2019-05-26T01:19:43.976Z,4.50
2019-05-26T01:22:36.774Z,3.90
2019-05-26T01:25:30.599Z,4.55
2019-05-26T01:28:24.422Z,4.72
2019-05-26T01:31:17.223Z,5.05
2019-05-26T01:34:10.284Z,4.72
2019-05-26T01:37:03.093Z,4.30
2019-05-26T01:39:56.135Z,4.55
2019-05-26T01:42:49.448Z,4.92
2019-05-26T01:45:42.502Z,4.58
2019-05-26T01:48:35.821Z,4.87
2019-05-26T01:51:28.872Z,4.83
2019-05-26T01:54:18.004Z,4.30
2019-05-26T01:57:10.892Z,2.15
2019-05-26T02:00:03.947Z,3.55
2019-05-26T02:02:56.747Z,4.17
2019-05-26T02:05:49.569Z,5.22
2019-05-26T02:08:39.932Z,4.58
2019-05-26T02:11:31.561Z,5.08
2019-05-26T02:14:24.359Z,5.00
2019-05-26T02:17:17.158Z,2.50
2019-05-26T02:20:06.717Z,4.85
2019-05-26T02:23:00.460Z,5.22
2019-05-26T02:25:53.510Z,5.20
2019-05-26T02:28:46.570Z,3.58
2019-05-26T02:31:40.651Z,3.22
2019-05-26T02:34:34.472Z,5.12
2019-05-26T02:37:27.277Z,5.05
2019-05-26T02:40:20.337Z,4.60
2019-05-26T02:43:14.154Z,4.65
2019-05-26T02:46:07.723Z,5.35
2019-05-26T02:49:00.523Z,5.22
2019-05-26T02:51:53.583Z,5.85
2019-05-26T02:54:46.378Z,4.83
2019-05-26T02:57:39.692Z,3.67
2019-05-26T03:00:32.743Z,2.67
2019-05-26T03:03:25.804Z,2.22
2019-05-26T03:06:19.112Z,2.42
2019-05-26T03:09:22.801Z,2.10
2019-05-26T03:12:01.902Z,5.10
2019-05-26T03:14:51.821Z,4.58
2019-05-26T03:17:45.454Z,3.27
2019-05-26T03:20:38.758Z,2.55
2019-05-26T03:23:31.584Z,2.62
2019-05-26T03:26:25.640Z,2.30
2019-05-26T03:29:15.743Z,4.58
2019-05-26T03:32:04.939Z,2.85
2019-05-26T03:34:57.651Z,6.28
2019-05-26T03:37:50.707Z,3.80
2019-05-26T03:40:43.757Z,2.70
2019-05-26T03:43:36.817Z,2.77
2019-05-26T03:46:50.095Z,2.60
2019-05-26T03:49:42.893Z,2.85
2019-05-26T03:52:35.687Z,2.72
2019-05-26T03:55:28.490Z,4.92
2019-05-26T03:58:21.552Z,4.78
2019-05-26T04:01:14.357Z,6.78
2019-05-26T04:04:07.401Z,5.22
2019-05-26T04:07:00.200Z,7.08
2019-05-26T04:10:04.616Z,6.78
2019-05-26T04:12:45.800Z,4.25
2019-05-26T04:15:34.760Z,6.65
2019-05-26T04:18:27.562Z,6.08
2019-05-26T04:21:20.361Z,6.20
2019-05-26T04:24:14.185Z,4.08
2019-05-26T04:27:08.011Z,4.08
2019-05-26T04:30:01.077Z,3.60
2019-05-26T04:32:53.863Z,2.90
2019-05-26T04:35:46.920Z,5.95
2019-05-26T04:38:40.753Z,4.33
2019-05-26T04:41:33.545Z,5.90
2019-05-26T04:44:26.342Z,3.20
2019-05-26T04:47:19.399Z,5.42
2019-05-26T04:50:12.203Z,4.00
2019-05-26T04:53:06.520Z,5.10
2019-05-26T04:55:54.478Z,2.87
2019-05-26T04:58:47.284Z,4.75
2019-05-26T05:01:40.073Z,2.85
2019-05-26T05:04:32.874Z,5.35
2019-05-26T05:07:28.449Z,5.75
2019-05-26T05:10:11.401Z,4.03
2019-05-26T05:13:04.369Z,3.25
2019-05-26T05:15:57.417Z,4.78
2019-05-26T05:18:50.476Z,6.00
2019-05-26T05:21:43.535Z,5.45
2019-05-26T05:24:37.609Z,5.25
2019-05-26T05:27:30.665Z,5.47
2019-05-26T05:30:24.747Z,2.67
2019-05-26T05:33:17.799Z,5.75
2019-05-26T05:36:07.273Z,3.35
2019-05-26T05:38:54.631Z,2.77
2019-05-26T05:41:47.754Z,4.05
2019-05-26T05:44:40.556Z,4.65
2019-05-26T05:47:33.355Z,4.70
2019-05-26T05:50:26.414Z,2.98
2019-05-26T05:53:15.535Z,2.90
2019-05-26T05:56:02.810Z,5.10
2019-05-26T05:58:55.589Z,2.72
2019-05-26T06:01:48.647Z,3.22
2019-05-26T06:04:41.704Z,2.67
2019-05-26T06:07:34.503Z,3.12
2019-05-26T06:10:25.001Z,3.72
2019-05-26T06:13:18.311Z,2.33
2019-05-26T06:16:11.878Z,2.20
2019-05-26T06:19:04.702Z,3.65
2019-05-26T06:21:57.481Z,3.08
2019-05-26T06:24:51.559Z,3.67
2019-05-26T06:27:44.613Z,3.25
2019-05-26T06:30:37.416Z,4.08
2019-05-26T06:33:30.220Z,3.37
2019-05-26T06:36:23.022Z,2.80
2019-05-26T06:39:16.838Z,3.52
2019-05-26T06:42:12.826Z,2.55
2019-05-26T06:45:02.445Z,4.08
2019-05-26T06:47:55.494Z,4.53
2019-05-26T06:50:48.565Z,3.45
2019-05-26T06:53:41.351Z,2.42
2019-05-26T06:56:35.174Z,2.20
2019-05-26T06:59:33.095Z,4.37
2019-05-26T07:02:26.150Z,4.45
2019-05-26T07:05:18.950Z,3.62
2019-05-26T07:08:12.008Z,2.80
2019-05-26T07:11:05.064Z,4.12
2019-05-26T07:13:58.118Z,3.12
2019-05-26T07:16:51.176Z,3.35
2019-05-26T07:19:43.976Z,3.30
2019-05-26T07:22:36.810Z,3.17
2019-05-26T07:25:29.576Z,3.70
2019-05-26T07:28:22.377Z,3.30
2019-05-26T07:31:15.430Z,3.40
2019-05-26T07:34:08.232Z,3.37
2019-05-26T07:37:01.288Z,2.83
2019-05-26T07:39:54.094Z,2.83
2019-05-26T07:42:46.888Z,3.00
2019-05-26T07:45:39.688Z,3.08
2019-05-26T07:48:35.783Z,2.72
2019-05-26T07:51:21.609Z,3.75
2019-05-26T07:54:25.105Z,3.90
2019-05-26T07:57:07.564Z,2.33
2019-05-26T08:00:00.618Z,2.55
2019-05-26T08:02:53.419Z,2.55
2019-05-26T08:05:46.214Z,3.40
2019-05-26T08:08:39.013Z,1.98
2019-05-26T08:11:32.073Z,2.92
2019-05-26T08:14:21.237Z,3.05
2019-05-26T08:17:14.348Z,2.33
2019-05-26T08:20:07.144Z,2.33
2019-05-26T08:23:00.216Z,2.47
2019-05-26T08:25:53.022Z,3.05
2019-05-26T08:28:45.801Z,2.55
2019-05-26T08:31:38.856Z,2.60
2019-05-26T08:34:31.929Z,5.33
2019-05-26T08:37:24.971Z,3.08
2019-05-26T08:40:35.694Z,2.75
2019-05-26T08:43:28.753Z,3.58
2019-05-26T08:46:21.542Z,2.90
2019-05-26T08:49:14.342Z,4.10
2019-05-26T08:52:07.398Z,3.40
2019-05-26T08:55:00.456Z,3.45
2019-05-26T08:57:53.514Z,2.90
2019-05-26T09:00:46.310Z,2.60
2019-05-26T09:03:39.626Z,3.92
2019-05-26T09:06:33.704Z,3.92
2019-05-26T09:09:26.759Z,3.90
2019-05-26T09:12:19.565Z,2.45
2019-05-26T09:15:12.365Z,2.22
2019-05-26T09:18:05.415Z,2.83
2019-05-26T09:20:58.214Z,4.97
2019-05-26T09:23:51.276Z,8.93
2019-05-26T09:26:44.329Z,7.45
2019-05-26T09:29:38.410Z,6.53
2019-05-26T09:32:31.462Z,4.00
2019-05-26T09:35:25.545Z,4.03
2019-05-26T09:38:19.622Z,3.77
2019-05-26T09:41:12.685Z,4.17
2019-05-26T09:44:05.737Z,3.80
2019-05-26T09:46:58.790Z,4.00
2019-05-26T09:49:51.846Z,3.30
2019-05-26T09:52:44.906Z,3.33
2019-05-26T09:55:38.223Z,3.00
2019-05-26T09:58:31.274Z,3.35
2019-05-26T10:01:24.326Z,3.22
2019-05-26T10:04:17.384Z,3.08
2019-05-26T10:07:14.896Z,3.22
2019-05-26T10:10:04.276Z,3.15
2019-05-26T10:12:57.323Z,2.90
2019-05-26T10:15:50.124Z,3.10
2019-05-26T10:18:43.182Z,4.00
2019-05-26T10:21:36.230Z,3.60
2019-05-26T10:24:29.032Z,3.85
2019-05-26T10:27:21.832Z,2.67
2019-05-26T10:30:11.563Z,4.08
2019-05-26T10:33:12.553Z,4.08
2019-05-26T10:36:05.629Z,4.15
2019-05-26T10:38:58.922Z,3.00
2019-05-26T10:41:51.353Z,3.60
2019-05-26T10:44:40.466Z,2.90
2019-05-26T10:47:33.511Z,3.10
2019-05-26T10:50:27.820Z,3.00
2019-05-26T10:53:20.614Z,3.67
2019-05-26T10:56:08.144Z,3.10
2019-05-26T10:59:01.361Z,2.92
2019-05-26T11:01:54.665Z,3.77
2019-05-26T11:04:47.980Z,2.80
2019-05-26T11:07:41.040Z,3.10
2019-05-26T11:10:34.088Z,2.98
2019-05-26T11:13:26.888Z,2.47
2019-05-26T11:16:19.946Z,3.42
2019-05-26T11:19:12.749Z,2.65
2019-05-26T11:25:40.328Z,2.42
2019-05-26T11:28:34.663Z,2.85
2019-05-26T11:31:27.725Z,2.35
2019-05-26T11:34:21.801Z,3.10
2019-05-26T11:37:16.134Z,2.45
2019-05-26T11:40:08.943Z,2.02
2019-05-26T11:43:15.761Z,2.50
2019-05-26T11:45:51.292Z,3.33
2019-05-26T11:48:44.272Z,2.83
2019-05-26T11:51:37.319Z,2.60
2019-05-26T11:54:30.376Z,3.02
2019-05-26T11:57:23.177Z,2.12
2019-05-26T12:00:12.870Z,2.92
2019-05-26T12:03:05.723Z,1.98
2019-05-26T12:05:58.760Z,3.40
2019-05-26T12:08:52.074Z,2.25
2019-05-26T12:11:45.385Z,2.77
2019-05-26T12:14:38.182Z,2.40
2019-05-26T12:17:31.506Z,2.05
2019-05-26T12:20:24.552Z,3.22
2019-05-26T12:23:18.378Z,1.85
2019-05-26T12:26:11.176Z,1.60
2019-05-26T12:29:04.289Z,2.20
2019-05-26T12:31:53.542Z,1.60
2019-05-26T12:34:46.506Z,2.27
2019-05-26T12:37:39.310Z,2.15
2019-05-26T12:40:32.619Z,1.90
2019-05-26T12:43:25.675Z,1.72
2019-05-26T12:46:18.731Z,1.40
2019-05-26T12:49:14.347Z,1.67
2019-05-26T12:52:07.153Z,1.77
2019-05-26T12:54:59.982Z,1.82
2019-05-26T12:57:49.181Z,1.37
2019-05-26T13:00:48.882Z,1.32
2019-05-26T13:03:36.297Z,1.57
2019-05-26T13:06:29.363Z,1.70
2019-05-26T13:09:18.570Z,1.50
2019-05-26T13:12:11.621Z,2.27
2019-05-26T13:15:06.199Z,1.80
2019-05-26T13:17:57.479Z,1.45
2019-05-26T13:20:50.811Z,2.00
2019-05-26T13:23:43.595Z,1.37
2019-05-26T13:26:37.673Z,1.50
2019-05-26T13:29:30.481Z,1.77
2019-05-26T13:32:26.343Z,1.50
2019-05-26T13:35:19.145Z,1.45
2019-05-26T13:38:12.711Z,1.40
2019-05-26T13:41:05.513Z,1.40
2019-05-26T13:43:58.569Z,1.60
2019-05-26T13:46:51.629Z,1.20
2019-05-26T13:49:44.423Z,1.00
2019-05-26T13:52:37.223Z,1.30
2019-05-26T13:55:30.026Z,1.30
2019-05-26T13:58:22.825Z,1.10
2019-05-26T14:01:15.879Z,1.70
2019-05-26T14:04:08.683Z,1.25
2019-05-26T14:07:01.481Z,1.22
2019-05-26T14:09:54.279Z,1.05
2019-05-26T14:12:47.079Z,1.30
2019-05-26T14:15:40.136Z,1.20
2019-05-26T14:18:33.193Z,1.30
2019-05-26T14:21:25.990Z,1.40
2019-05-26T14:24:18.793Z,1.10
2019-05-26T14:27:11.847Z,1.30
2019-05-26T14:30:04.923Z,0.80
2019-05-26T14:32:57.960Z,1.40
2019-05-26T14:35:50.763Z,0.88
2019-05-26T14:38:44.839Z,1.00
2019-05-26T14:41:37.643Z,1.25
2019-05-26T14:44:38.631Z,1.10
2019-05-26T14:47:31.699Z,1.10
2019-05-26T14:50:24.490Z,1.00
2019-05-26T14:53:17.289Z,1.05
2019-05-26T14:56:10.087Z,1.35
2019-05-26T14:59:02.887Z,0.93
2019-05-26T15:01:56.203Z,0.95
2019-05-26T15:04:49.513Z,1.00
2019-05-26T15:07:42.824Z,1.40
2019-05-26T15:11:31.174Z,1.00
2019-05-26T15:14:23.978Z,1.02
2019-05-26T15:17:17.031Z,0.90
2019-05-26T15:20:09.829Z,0.75
2019-05-26T15:23:02.630Z,1.15
2019-05-26T15:25:55.432Z,1.00
2019-05-26T15:28:50.532Z,0.93
2019-05-26T15:31:43.335Z,1.00
2019-05-26T15:34:38.443Z,0.90
2019-05-26T15:37:31.252Z,1.00
2019-05-26T15:40:24.305Z,0.93
2019-05-26T15:43:17.613Z,0.95
2019-05-26T15:46:24.324Z,0.90
2019-05-26T15:49:03.484Z,1.00
2019-05-26T15:51:56.521Z,0.78
2019-05-26T15:54:49.593Z,1.07
2019-05-26T15:57:42.637Z,0.75
2019-05-26T16:00:35.688Z,0.65
2019-05-26T16:03:28.519Z,0.60
2019-05-26T16:06:21.545Z,0.85
2019-05-26T16:09:10.761Z,0.50
2019-05-26T16:12:03.819Z,1.22
2019-05-26T16:14:56.873Z,0.50
2019-05-26T16:17:46.348Z,0.30
2019-05-26T16:23:45.540Z,0.60
2019-05-26T16:26:39.335Z,0.70
2019-05-26T16:29:32.389Z,0.80
2019-05-26T16:32:25.192Z,0.55
2019-05-26T16:35:19.274Z,0.50
2019-05-26T16:38:08.486Z,0.53
2019-05-26T16:40:58.222Z,0.80
2019-05-26T16:43:51.275Z,0.50
2019-05-26T16:46:56.024Z,0.60
2019-05-26T16:49:39.177Z,0.70
2019-05-26T16:52:32.230Z,0.65
2019-05-26T16:55:25.543Z,0.70
2019-05-26T16:58:18.604Z,0.72
2019-05-26T17:01:11.657Z,0.55
2019-05-26T17:04:05.228Z,0.70
2019-05-26T17:06:58.030Z,1.10
2019-05-26T17:09:51.343Z,0.70
2019-05-26T17:12:45.161Z,0.70
2019-05-26T17:15:38.213Z,0.95
2019-05-26T17:18:31.537Z,1.25
2019-05-26T17:21:24.591Z,0.72
2019-05-26T17:24:17.895Z,0.85
2019-05-26T17:27:12.489Z,0.80
2019-05-26T17:30:06.311Z,0.90
2019-05-26T17:32:59.367Z,0.90
2019-05-26T17:35:53.447Z,0.85
2019-05-26T17:38:46.505Z,1.00
2019-05-26T17:41:39.560Z,0.72
2019-05-26T17:44:32.617Z,0.90
2019-05-26T17:47:30.474Z,1.00
2019-05-26T17:50:20.521Z,0.80
2019-05-26T17:53:13.393Z,1.00
2019-05-26T17:56:06.376Z,1.07
2019-05-26T17:58:59.183Z,0.70
2019-05-26T18:01:53.001Z,1.07
2019-05-26T18:04:46.313Z,0.82
2019-05-26T18:07:40.397Z,0.82
2019-05-26T18:10:33.193Z,0.93
2019-05-26T18:13:26.251Z,0.95
2019-05-26T18:16:19.308Z,0.90
2019-05-26T18:19:12.876Z,0.80
2019-05-26T18:22:05.936Z,1.00
2019-05-26T18:24:58.156Z,0.95
2019-05-26T18:27:44.748Z,0.68
2019-05-26T18:30:37.672Z,0.78
2019-05-26T18:36:48.363Z,1.00
2019-05-26T18:39:50.124Z,1.00
2019-05-26T18:42:43.176Z,0.90
2019-05-26T18:45:36.745Z,0.85
2019-05-26T18:48:29.802Z,0.90
2019-05-26T18:51:19.533Z,1.00
2019-05-26T18:54:12.585Z,0.75
2019-05-26T18:57:05.641Z,1.07
2019-05-26T18:59:59.209Z,1.22
2019-05-26T19:02:52.261Z,1.10
2019-05-26T19:05:45.583Z,1.05
2019-05-26T19:08:38.683Z,1.12
2019-05-26T19:11:31.690Z,1.10
2019-05-26T19:14:24.743Z,1.05
2019-05-26T19:17:17.802Z,1.00
2019-05-26T19:20:15.905Z,1.20
2019-05-26T19:23:03.668Z,0.90
2019-05-26T19:25:52.874Z,1.22
2019-05-26T19:28:46.741Z,1.27
2019-05-26T19:31:51.272Z,1.25
2019-05-26T19:34:45.353Z,0.80
2019-05-26T19:37:38.665Z,1.17
2019-05-26T19:40:31.720Z,0.82
2019-05-26T19:43:25.546Z,1.10
2019-05-26T19:46:18.601Z,1.00
2019-05-26T19:49:11.655Z,1.35
2019-05-26T19:52:04.717Z,1.20
2019-05-26T19:54:55.179Z,1.10
2019-05-26T19:57:48.265Z,1.25
2019-05-26T20:00:41.583Z,1.27
2019-05-26T20:03:31.055Z,1.07
2019-05-26T20:06:24.359Z,1.10
2019-05-26T20:09:17.675Z,1.40
2019-05-26T20:12:10.765Z,1.50
2019-05-26T20:15:03.784Z,1.75
2019-05-26T20:18:05.548Z,1.15
2019-05-26T20:20:58.601Z,1.27
2019-05-26T20:23:51.658Z,1.45
2019-05-26T20:26:44.969Z,1.00
2019-05-26T20:29:38.028Z,1.57
2019-05-26T20:32:31.087Z,1.32
2019-05-26T20:35:25.160Z,1.47
2019-05-26T20:38:18.236Z,1.35
2019-05-26T20:41:11.532Z,1.77
2019-05-26T20:44:05.613Z,1.32
2019-05-26T20:46:58.679Z,1.30
2019-05-26T20:49:51.723Z,1.05
2019-05-26T20:52:45.032Z,1.22
2019-05-26T20:55:38.619Z,1.17
2019-05-26T20:58:32.946Z,1.32
2019-05-26T21:01:27.014Z,1.70
2019-05-26T21:04:16.536Z,1.52
2019-05-26T21:07:10.569Z,1.72
2019-05-26T21:10:03.627Z,1.15
2019-05-26T21:12:56.424Z,1.00
2019-05-26T21:15:49.491Z,1.27
2019-05-26T21:18:42.545Z,1.20
2019-05-26T21:21:35.848Z,1.70
2019-05-26T21:24:28.905Z,1.30
2019-05-26T21:27:22.239Z,0.95
2019-05-26T21:30:15.273Z,1.30
2019-05-26T21:33:08.592Z,1.05
2019-05-26T21:36:02.151Z,0.80
2019-05-26T21:38:51.583Z,1.10
2019-05-26T21:41:52.107Z,1.15
2019-05-26T21:44:39.561Z,1.20
2019-05-26T21:47:34.147Z,1.02
2019-05-26T21:50:27.180Z,0.80
2019-05-26T21:53:20.749Z,0.78
2019-05-26T21:56:13.861Z,0.90
2019-05-26T21:59:06.864Z,0.90
2019-05-26T22:01:59.657Z,1.15
2019-05-26T22:04:52.969Z,0.98
2019-05-26T22:08:06.249Z,0.75
2019-05-26T22:11:26.956Z,1.52
2019-05-26T22:14:39.721Z,1.07
2019-05-26T22:17:36.110Z,0.98
2019-05-26T22:20:49.134Z,0.95
2019-05-26T22:23:42.438Z,1.32
2019-05-26T22:26:35.758Z,0.98
2019-05-26T22:29:29.066Z,1.00
2019-05-26T22:32:22.378Z,0.82
2019-05-26T22:35:15.942Z,0.90
2019-05-26T22:38:09.771Z,1.05
2019-05-26T22:40:59.013Z,0.70
2019-05-26T22:43:52.808Z,0.80
2019-05-26T22:46:45.609Z,0.98
2019-05-26T22:49:39.175Z,0.62
2019-05-26T22:52:28.390Z,1.10
2019-05-26T22:55:21.190Z,0.72
2019-05-26T22:58:27.302Z,0.80
2019-05-26T23:01:20.617Z,0.70
2019-05-26T23:04:13.416Z,0.80
2019-05-26T23:07:06.726Z,0.80
2019-05-26T23:10:02.641Z,0.88
2019-05-26T23:12:53.610Z,0.70
2019-05-26T23:15:54.088Z,0.80
2019-05-26T23:18:58.152Z,0.82
2019-05-26T23:21:51.281Z,1.00
2019-05-26T23:24:44.008Z,1.05
2019-05-26T23:27:33.359Z,0.72
2019-05-26T23:30:26.279Z,0.85
2019-05-26T23:33:19.086Z,0.88
2019-05-26T23:36:11.878Z,0.95
2019-05-26T23:39:04.708Z,1.02
2019-05-26T23:41:57.743Z,0.80
2019-05-26T23:44:51.824Z,0.95
2019-05-26T23:47:44.614Z,1.07
2019-05-26T23:50:37.415Z,0.70
2019-05-26T23:53:30.215Z,0.70
2019-05-26T23:56:23.022Z,0.90
2019-05-26T23:59:16.071Z,0.88
